createdAt,value
2019-03-10T00:01:51.577Z,95517.77
2019-03-10T00:04:18.881Z,95520.89
2019-03-10T00:06:46.200Z,95508.78
2019-03-10T00:09:13.534Z,95505.58
2019-03-10T00:11:40.881Z,95514.17
2019-03-10T00:14:08.155Z,95508.91
2019-03-10T00:16:35.499Z,95523.36
2019-03-10T00:19:02.812Z,95519.55
2019-03-10T00:21:30.124Z,95510.22
2019-03-10T00:23:57.540Z,95519.11
2019-03-10T00:26:25.190Z,95529.38
2019-03-10T00:28:52.481Z,95534.70
2019-03-10T00:31:19.910Z,95524.95
2019-03-10T00:33:47.219Z,95526.70
2019-03-10T00:36:14.588Z,95532.92
2019-03-10T00:39:04.656Z,95533.17
2019-03-10T00:42:22.219Z,95533.34
2019-03-10T00:45:36.332Z,95535.80
2019-03-10T00:49:00.491Z,95541.83
2019-03-10T00:51:55.597Z,95540.52
2019-03-10T00:54:22.962Z,95539.94
2019-03-10T00:56:50.343Z,95537.31
2019-03-10T00:59:18.693Z,95548.95
2019-03-10T01:01:46.081Z,95536.86
2019-03-10T01:04:15.457Z,95535.13
2019-03-10T01:06:42.874Z,95527.14
2019-03-10T01:09:10.281Z,95525.75
2019-03-10T01:11:37.802Z,95523.80
2019-03-10T01:14:05.159Z,95518.96
2019-03-10T01:16:32.665Z,95518.39
2019-03-10T01:19:00.142Z,95513.98
2019-03-10T01:21:27.405Z,95514.14
2019-03-10T01:23:54.717Z,95511.03
2019-03-10T01:26:22.001Z,95516.92
2019-03-10T01:28:49.293Z,95507.14
2019-03-10T01:31:27.121Z,95501.42
2019-03-10T01:34:12.440Z,95490.50
2019-03-10T01:36:39.865Z,95479.41
2019-03-10T01:39:09.251Z,95473.53
2019-03-10T01:41:36.571Z,95456.34
2019-03-10T01:44:03.882Z,95448.93
2019-03-10T01:46:31.227Z,95451.59
2019-03-10T01:48:58.561Z,95454.38
2019-03-10T01:51:25.841Z,95443.87
2019-03-10T01:53:53.152Z,95438.95
2019-03-10T01:56:20.535Z,95429.38
2019-03-10T01:58:47.802Z,95423.23
2019-03-10T02:01:15.121Z,95409.72
2019-03-10T02:03:42.441Z,95405.56
2019-03-10T02:06:09.723Z,95404.99
2019-03-10T02:08:37.010Z,95389.09
2019-03-10T02:11:04.521Z,95388.05
2019-03-10T02:13:31.853Z,95383.86
2019-03-10T02:15:59.121Z,95387.03
2019-03-10T02:18:26.437Z,95376.73
2019-03-10T02:20:53.795Z,95368.61
2019-03-10T02:23:21.163Z,95362.58
2019-03-10T02:25:48.482Z,95373.73
2019-03-10T02:28:15.761Z,95366.66
2019-03-10T02:30:43.135Z,95360.64
2019-03-10T02:33:10.572Z,95360.08
2019-03-10T02:35:37.846Z,95358.58
2019-03-10T02:38:05.170Z,95361.55
2019-03-10T02:40:32.481Z,95359.48
2019-03-10T02:42:59.832Z,95347.23
2019-03-10T02:45:27.178Z,95346.23
2019-03-10T02:47:54.561Z,95341.95
2019-03-10T02:50:21.961Z,95339.03
2019-03-10T02:52:49.281Z,95330.81
2019-03-10T02:55:16.727Z,95331.87
2019-03-10T02:57:44.019Z,95326.76
2019-03-10T03:00:12.856Z,95313.20
2019-03-10T03:02:40.201Z,95325.39
2019-03-10T03:05:08.654Z,95309.57
2019-03-10T03:07:35.931Z,95323.63
2019-03-10T03:10:03.550Z,95312.02
2019-03-10T03:12:30.909Z,95313.14
2019-03-10T03:14:58.231Z,95301.50
2019-03-10T03:17:25.572Z,95295.20
2019-03-10T03:19:53.283Z,95303.94
2019-03-10T03:22:20.572Z,95297.05
2019-03-10T03:24:47.885Z,95293.59
2019-03-10T03:27:15.213Z,95288.69
2019-03-10T03:29:42.507Z,95281.62
2019-03-10T03:32:09.845Z,95272.50
2019-03-10T03:34:37.105Z,95263.55
2019-03-10T03:37:05.538Z,95260.63
2019-03-10T03:39:36.434Z,95244.70
2019-03-10T03:42:03.763Z,95248.14
2019-03-10T03:44:31.102Z,95245.37
2019-03-10T03:46:58.402Z,95235.44
2019-03-10T03:49:25.724Z,95242.21
2019-03-10T03:51:53.012Z,95241.01
2019-03-10T03:54:20.397Z,95239.98
2019-03-10T03:56:47.724Z,95226.80
2019-03-10T03:59:15.517Z,95218.78
2019-03-10T04:01:46.946Z,95218.11
2019-03-10T04:04:14.286Z,95200.84
2019-03-10T04:06:41.732Z,95213.69
2019-03-10T04:09:09.171Z,95203.22
2019-03-10T04:11:36.518Z,95198.02
2019-03-10T04:14:03.962Z,95197.09
2019-03-10T04:16:31.411Z,95194.48
2019-03-10T04:18:58.765Z,95205.89
2019-03-10T04:21:26.122Z,95188.45
2019-03-10T04:23:53.542Z,95200.12
2019-03-10T04:26:20.881Z,95196.25
2019-03-10T04:28:48.270Z,95191.87
2019-03-10T04:31:15.728Z,95188.71
2019-03-10T04:33:43.073Z,95201.98
2019-03-10T04:36:10.441Z,95197.72
2019-03-10T04:38:37.817Z,95204.11
2019-03-10T04:41:05.258Z,95184.65
2019-03-10T04:43:32.691Z,95194.19
2019-03-10T04:46:00.002Z,95174.61
2019-03-10T04:48:27.332Z,95181.17
2019-03-10T04:50:54.746Z,95165.77
2019-03-10T04:53:22.045Z,95175.16
2019-03-10T04:56:24.000Z,95169.88
2019-03-10T04:58:56.057Z,95163.45
2019-03-10T05:01:24.961Z,95149.34
2019-03-10T05:03:52.251Z,95141.64
2019-03-10T05:06:19.608Z,95145.64
2019-03-10T05:08:46.921Z,95144.07
2019-03-10T05:11:14.211Z,95142.00
2019-03-10T05:13:41.841Z,95141.17
2019-03-10T05:16:09.165Z,95159.07
2019-03-10T05:18:36.441Z,95151.50
2019-03-10T05:21:03.731Z,95151.67
2019-03-10T05:23:36.812Z,95142.88
2019-03-10T05:26:04.292Z,95140.48
2019-03-10T05:28:32.411Z,95133.09
2019-03-10T05:30:59.812Z,95124.38
2019-03-10T05:33:27.095Z,95134.87
2019-03-10T05:35:54.468Z,95137.53
2019-03-10T05:38:21.757Z,95124.16
2019-03-10T05:40:49.146Z,95111.94
2019-03-10T05:43:16.516Z,95097.75
2019-03-10T05:45:43.851Z,95098.94
2019-03-10T05:48:11.141Z,95087.40
2019-03-10T05:50:38.474Z,95091.98
2019-03-10T05:53:05.785Z,95081.31
2019-03-10T05:55:33.081Z,95087.70
2019-03-10T05:58:00.421Z,95092.61
2019-03-10T06:00:27.733Z,95088.64
2019-03-10T06:02:55.041Z,95094.37
2019-03-10T06:05:22.356Z,95079.75
2019-03-10T06:07:51.675Z,95086.45
2019-03-10T06:10:19.062Z,95082.31
2019-03-10T06:12:46.673Z,95084.17
2019-03-10T06:15:14.014Z,95086.41
2019-03-10T06:17:41.313Z,95089.17
2019-03-10T06:20:10.812Z,95103.62
2019-03-10T06:22:38.131Z,95109.13
2019-03-10T06:25:05.534Z,95104.27
2019-03-10T06:27:32.802Z,95108.92
2019-03-10T06:30:00.336Z,95116.36
2019-03-10T06:32:27.662Z,95119.62
2019-03-10T06:34:54.971Z,95119.66
2019-03-10T06:37:22.295Z,95117.30
2019-03-10T06:39:49.571Z,95126.48
2019-03-10T06:42:16.972Z,95123.36
2019-03-10T06:44:44.291Z,95116.02
2019-03-10T06:47:11.641Z,95117.64
2019-03-10T06:49:38.971Z,95111.61
2019-03-10T06:52:06.371Z,95107.27
2019-03-10T06:54:33.721Z,95097.20
2019-03-10T06:57:00.982Z,95091.33
2019-03-10T06:59:28.309Z,95100.34
2019-03-10T07:01:55.611Z,95090.39
2019-03-10T07:04:22.932Z,95082.14
2019-03-10T07:06:50.252Z,95070.30
2019-03-10T07:09:17.557Z,95065.87
2019-03-10T07:11:44.851Z,95055.73
2019-03-10T07:14:12.176Z,95058.05
2019-03-10T07:16:39.441Z,95057.24
2019-03-10T07:19:06.761Z,95047.95
2019-03-10T07:21:34.065Z,95049.02
2019-03-10T07:24:01.391Z,95043.22
2019-03-10T07:26:28.691Z,95036.81
2019-03-10T07:29:03.818Z,95031.37
2019-03-10T07:31:38.860Z,95023.70
2019-03-10T07:34:25.091Z,95018.20
2019-03-10T07:37:11.161Z,95020.67
2019-03-10T07:40:00.869Z,95014.98
2019-03-10T07:42:50.510Z,95007.71
2019-03-10T07:45:40.949Z,95009.55
2019-03-10T07:48:24.897Z,95003.70
2019-03-10T07:51:02.119Z,95008.47
2019-03-10T07:53:37.337Z,94999.66
2019-03-10T07:56:15.402Z,94993.19
2019-03-10T07:59:17.191Z,94985.14
2019-03-10T08:02:03.902Z,94983.45
2019-03-10T08:04:59.582Z,94973.98
2019-03-10T08:07:46.407Z,94972.68
2019-03-10T08:10:22.052Z,94956.58
2019-03-10T08:13:04.377Z,94949.08
2019-03-10T08:15:55.053Z,94947.45
2019-03-10T08:18:45.052Z,94933.45
2019-03-10T08:21:21.321Z,94943.20
2019-03-10T08:24:08.218Z,94934.16
2019-03-10T08:26:55.051Z,94929.06
2019-03-10T08:29:46.051Z,94932.87
2019-03-10T08:32:44.766Z,94918.22
2019-03-10T08:35:22.331Z,94915.48
2019-03-10T08:38:01.986Z,94898.57
2019-03-10T08:40:41.172Z,94897.34
2019-03-10T08:43:30.131Z,94889.16
2019-03-10T08:46:12.277Z,94880.86
2019-03-10T08:48:48.687Z,94880.51
2019-03-10T08:51:36.998Z,94868.38
2019-03-10T08:54:26.873Z,94866.30
2019-03-10T08:57:12.204Z,94848.34
2019-03-10T09:00:14.213Z,94853.70
2019-03-10T09:02:59.830Z,94846.37
2019-03-10T09:05:42.807Z,94842.67
2019-03-10T09:08:20.481Z,94830.12
2019-03-10T09:10:59.962Z,94829.66
2019-03-10T09:13:43.061Z,94818.80
2019-03-10T09:16:18.641Z,94818.05
2019-03-10T09:19:11.597Z,94809.49
2019-03-10T09:21:54.023Z,94801.09
2019-03-10T09:24:39.594Z,94813.73
2019-03-10T09:27:25.222Z,94814.30
2019-03-10T09:30:14.948Z,94823.83
2019-03-10T09:33:04.445Z,94831.16
2019-03-10T09:35:46.285Z,94818.06
2019-03-10T09:38:45.359Z,94816.77
2019-03-10T09:41:31.030Z,94820.22
2019-03-10T09:44:10.678Z,94822.25
2019-03-10T09:46:49.663Z,94812.53
2019-03-10T09:49:36.579Z,94806.76
2019-03-10T09:52:26.289Z,94808.90
2019-03-10T09:55:17.045Z,94806.73
2019-03-10T09:58:10.307Z,94793.41
2019-03-10T10:00:58.083Z,94793.37
2019-03-10T10:03:39.916Z,94790.66
2019-03-10T10:06:32.593Z,94783.71
2019-03-10T10:09:11.709Z,94791.07
2019-03-10T10:11:49.021Z,94784.45
2019-03-10T10:14:50.680Z,94782.00
2019-03-10T10:17:31.152Z,94780.28
2019-03-10T10:20:17.097Z,94770.92
2019-03-10T10:23:07.821Z,94771.69
2019-03-10T10:25:41.618Z,94779.30
2019-03-10T10:28:14.610Z,94783.38
2019-03-10T10:31:04.364Z,94780.85
2019-03-10T10:33:50.045Z,94790.24
2019-03-10T10:36:37.077Z,94784.97
2019-03-10T10:39:44.346Z,94777.05
2019-03-10T10:42:22.089Z,94780.11
2019-03-10T10:45:15.194Z,94784.53
2019-03-10T10:48:05.094Z,94781.99
2019-03-10T10:50:58.226Z,94772.94
2019-03-10T10:53:43.743Z,94779.77
2019-03-10T10:56:30.974Z,94774.89
2019-03-10T10:59:13.431Z,94759.14
2019-03-10T11:02:00.671Z,94775.92
2019-03-10T11:05:02.937Z,94778.22
2019-03-10T11:07:51.076Z,94768.73
2019-03-10T11:10:53.408Z,94762.97
2019-03-10T11:13:39.023Z,94760.52
2019-03-10T11:16:21.278Z,94759.79
2019-03-10T11:19:08.854Z,94749.32
2019-03-10T11:21:47.128Z,94734.06
2019-03-10T11:24:22.332Z,94725.98
2019-03-10T11:27:05.773Z,94724.18
2019-03-10T11:30:00.417Z,94723.92
2019-03-10T11:33:02.537Z,94724.73
2019-03-10T11:35:53.571Z,94720.13
2019-03-10T11:38:39.626Z,94730.23
2019-03-10T11:41:33.769Z,94723.25
2019-03-10T11:44:16.791Z,94699.52
2019-03-10T11:47:07.097Z,94692.94
2019-03-10T11:49:44.055Z,94682.77
2019-03-10T11:52:37.469Z,94673.08
2019-03-10T11:55:11.676Z,94671.44
2019-03-10T11:57:58.785Z,94662.67
2019-03-10T12:00:51.946Z,94651.92
2019-03-10T12:03:27.295Z,94662.09
2019-03-10T12:06:14.531Z,94654.05
2019-03-10T12:09:01.563Z,94640.51
2019-03-10T12:11:29.190Z,94642.06
2019-03-10T12:13:56.733Z,94640.08
2019-03-10T12:16:24.568Z,94634.11
2019-03-10T12:18:54.204Z,94621.48
2019-03-10T12:21:21.849Z,94625.44
2019-03-10T12:23:49.604Z,94609.51
2019-03-10T12:26:17.260Z,94612.31
2019-03-10T12:28:44.851Z,94598.16
2019-03-10T12:31:12.533Z,94588.89
2019-03-10T12:33:40.197Z,94585.14
2019-03-10T12:36:08.403Z,94570.95
2019-03-10T12:38:36.606Z,94582.16
2019-03-10T12:41:04.688Z,94574.24
2019-03-10T12:43:32.433Z,94562.52
2019-03-10T12:46:00.107Z,94549.19
2019-03-10T12:48:27.973Z,94543.89
2019-03-10T12:50:57.344Z,94534.63
2019-03-10T12:53:25.326Z,94524.92
2019-03-10T12:55:53.163Z,94521.77
2019-03-10T12:58:20.811Z,94505.68
2019-03-10T13:00:48.628Z,94494.05
2019-03-10T13:03:16.482Z,94496.40
2019-03-10T13:05:44.331Z,94505.06
2019-03-10T13:08:12.199Z,94498.54
2019-03-10T13:10:39.907Z,94493.69
2019-03-10T13:13:07.689Z,94513.34
2019-03-10T13:15:35.501Z,94495.83
2019-03-10T13:18:03.403Z,94500.36
2019-03-10T13:20:31.246Z,94508.79
2019-03-10T13:22:59.699Z,94518.53
2019-03-10T13:25:27.546Z,94504.59
2019-03-10T13:27:55.230Z,94514.58
2019-03-10T13:30:24.461Z,94511.38
2019-03-10T13:32:52.437Z,94513.25
2019-03-10T13:35:21.864Z,94511.11
2019-03-10T13:37:49.512Z,94504.53
2019-03-10T13:40:20.011Z,94506.75
2019-03-10T13:42:48.296Z,94517.31
2019-03-10T13:45:16.084Z,94527.19
2019-03-10T13:47:44.059Z,94533.64
2019-03-10T13:50:14.147Z,94526.38
2019-03-10T13:52:42.164Z,94515.69
2019-03-10T13:55:10.583Z,94520.19
2019-03-10T13:57:38.653Z,94500.16
2019-03-10T14:00:10.663Z,94491.94
2019-03-10T14:02:40.921Z,94479.34
2019-03-10T14:05:09.409Z,94473.98
2019-03-10T14:07:37.049Z,94477.59
2019-03-10T14:10:04.956Z,94479.41
2019-03-10T14:12:32.724Z,94466.22
2019-03-10T14:15:00.688Z,94474.55
2019-03-10T14:17:28.463Z,94495.41
2019-03-10T14:19:56.148Z,94485.34
2019-03-10T14:22:24.127Z,94463.31
2019-03-10T14:24:51.865Z,94463.22
2019-03-10T14:27:20.622Z,94462.92
2019-03-10T14:29:48.745Z,94468.12
2019-03-10T14:32:18.087Z,94470.13
2019-03-10T14:34:46.736Z,94469.11
2019-03-10T14:37:14.558Z,94466.63
2019-03-10T14:39:42.309Z,94460.19
2019-03-10T14:42:12.747Z,94449.77
2019-03-10T14:44:40.575Z,94441.69
2019-03-10T14:47:08.295Z,94450.59
2019-03-10T14:49:36.098Z,94437.59
2019-03-10T14:52:04.096Z,94433.42
2019-03-10T14:54:32.305Z,94441.22
2019-03-10T14:57:02.626Z,94432.99
2019-03-10T14:59:29.840Z,94437.63
2019-03-10T15:02:00.112Z,94443.48
2019-03-10T15:04:27.212Z,94439.08
2019-03-10T15:06:55.025Z,94452.40
2019-03-10T15:09:23.148Z,94441.28
2019-03-10T15:11:52.147Z,94443.36
2019-03-10T15:14:20.054Z,94445.71
2019-03-10T15:16:48.104Z,94451.77
2019-03-10T15:19:15.865Z,94435.99
2019-03-10T15:21:43.556Z,94425.08
2019-03-10T15:24:11.337Z,94447.45
2019-03-10T15:26:45.606Z,94442.50
2019-03-10T15:29:09.022Z,94450.44
2019-03-10T15:31:36.762Z,94430.97
2019-03-10T15:34:06.056Z,94431.97
2019-03-10T15:36:33.883Z,94430.34
2019-03-10T15:39:03.216Z,94422.92
2019-03-10T15:41:30.861Z,94433.42
2019-03-10T15:43:59.692Z,94436.88
2019-03-10T15:46:27.440Z,94424.00
2019-03-10T15:48:55.347Z,94429.59
2019-03-10T15:51:23.030Z,94446.58
2019-03-10T15:53:50.864Z,94443.12
2019-03-10T15:56:18.841Z,94473.69
2019-03-10T15:58:46.509Z,94473.82
2019-03-10T16:01:16.437Z,94466.40
2019-03-10T16:03:44.396Z,94492.28
2019-03-10T16:06:12.264Z,94493.53
2019-03-10T16:08:40.217Z,94489.91
2019-03-10T16:11:10.417Z,94486.75
2019-03-10T16:13:39.382Z,94479.97
2019-03-10T16:16:07.996Z,94484.23
2019-03-10T16:18:36.135Z,94479.04
2019-03-10T16:21:04.010Z,94470.91
2019-03-10T16:23:31.651Z,94501.51
2019-03-10T16:25:59.305Z,94479.28
2019-03-10T16:28:27.411Z,94454.78
2019-03-10T16:30:55.214Z,94446.41
2019-03-10T16:33:25.317Z,94469.73
2019-03-10T16:35:52.973Z,94469.28
2019-03-10T16:38:21.229Z,94508.73
2019-03-10T16:40:49.309Z,94537.48
2019-03-10T16:43:17.097Z,94526.72
2019-03-10T16:45:44.924Z,94546.41
2019-03-10T16:48:12.606Z,94563.17
2019-03-10T16:50:41.577Z,94572.49
2019-03-10T16:53:09.468Z,94564.05
2019-03-10T16:55:37.365Z,94583.21
2019-03-10T16:58:05.187Z,94603.76
2019-03-10T17:00:33.307Z,94612.39
2019-03-10T17:03:03.204Z,94611.39
2019-03-10T17:05:31.058Z,94606.27
2019-03-10T17:07:58.958Z,94625.23
2019-03-10T17:10:26.796Z,94631.17
2019-03-10T17:12:55.013Z,94612.60
2019-03-10T17:15:23.854Z,94607.16
2019-03-10T17:17:54.234Z,94623.16
2019-03-10T17:20:22.092Z,94652.44
2019-03-10T17:22:50.379Z,94646.53
2019-03-10T17:25:18.272Z,94669.08
2019-03-10T17:27:46.054Z,94652.33
2019-03-10T17:30:18.585Z,94676.96
2019-03-10T17:32:46.751Z,94681.97
2019-03-10T17:35:15.922Z,94694.97
2019-03-10T17:37:48.309Z,94700.75
2019-03-10T17:40:16.639Z,94691.66
2019-03-10T17:42:44.662Z,94716.70
2019-03-10T17:45:15.060Z,94727.08
2019-03-10T17:47:43.012Z,94711.03
2019-03-10T17:50:11.632Z,94725.80
2019-03-10T17:52:39.629Z,94741.59
2019-03-10T17:55:07.549Z,94751.33
2019-03-10T17:57:35.213Z,94759.94
2019-03-10T18:00:03.437Z,94753.41
2019-03-10T18:02:31.510Z,94773.09
2019-03-10T18:04:59.417Z,94777.17
2019-03-10T18:07:28.931Z,94776.27
2019-03-10T18:09:56.820Z,94775.08
2019-03-10T18:12:24.839Z,94781.52
2019-03-10T18:14:55.523Z,94788.80
2019-03-10T18:17:23.471Z,94799.00
2019-03-10T18:19:51.359Z,94805.25
2019-03-10T18:22:19.394Z,94822.62
2019-03-10T18:24:47.211Z,94824.02
2019-03-10T18:27:15.614Z,94828.48
2019-03-10T18:29:43.644Z,94839.43
2019-03-10T18:32:11.598Z,94843.73
2019-03-10T18:34:39.915Z,94832.23
2019-03-10T18:37:09.297Z,94842.91
2019-03-10T18:39:37.404Z,94835.02
2019-03-10T18:42:05.410Z,94847.09
2019-03-10T18:44:36.048Z,94851.34
2019-03-10T18:47:04.331Z,94867.88
2019-03-10T18:49:33.287Z,94874.64
2019-03-10T18:52:01.241Z,94885.82
2019-03-10T18:54:29.108Z,94876.88
2019-03-10T18:56:57.089Z,94862.88
2019-03-10T18:59:24.808Z,94854.45
2019-03-10T19:01:53.293Z,94868.30
2019-03-10T19:04:21.658Z,94860.90
2019-03-10T19:06:49.926Z,94861.89
2019-03-10T19:09:17.827Z,94872.24
2019-03-10T19:11:46.731Z,94883.41
2019-03-10T19:14:14.550Z,94904.11
2019-03-10T19:16:42.440Z,94922.37
2019-03-10T19:19:12.573Z,94931.20
2019-03-10T19:21:40.586Z,94942.94
2019-03-10T19:24:08.450Z,94950.94
2019-03-10T19:26:37.980Z,94952.69
2019-03-10T19:29:05.949Z,94958.30
2019-03-10T19:31:33.694Z,94954.05
2019-03-10T19:34:01.613Z,94950.84
2019-03-10T19:36:29.295Z,94957.33
2019-03-10T19:38:57.187Z,94953.67
2019-03-10T19:41:27.873Z,94963.85
2019-03-10T19:43:55.692Z,94979.41
2019-03-10T19:46:24.478Z,94981.62
2019-03-10T19:48:52.365Z,94978.03
2019-03-10T19:51:20.460Z,94971.92
2019-03-10T19:53:48.336Z,94979.72
2019-03-10T19:56:16.576Z,94978.65
2019-03-10T19:58:45.113Z,94970.08
2019-03-10T20:01:13.447Z,94965.00
2019-03-10T20:03:42.250Z,94965.98
2019-03-10T20:06:09.986Z,94977.99
2019-03-10T20:08:37.676Z,95000.30
2019-03-10T20:11:05.515Z,95011.39
2019-03-10T20:13:33.792Z,95017.95
2019-03-10T20:16:01.576Z,95022.44
2019-03-10T20:18:30.189Z,95037.98
2019-03-10T20:20:58.233Z,95041.92
2019-03-10T20:23:26.006Z,95041.13
2019-03-10T20:25:53.975Z,95031.96
2019-03-10T20:28:21.667Z,95026.94
2019-03-10T20:30:50.948Z,95028.39
2019-03-10T20:33:19.822Z,95046.94
2019-03-10T20:35:47.543Z,95050.64
2019-03-10T20:38:15.801Z,95051.97
2019-03-10T20:40:43.513Z,95047.23
2019-03-10T20:43:12.227Z,95043.05
2019-03-10T20:45:39.908Z,95037.09
2019-03-10T20:48:07.675Z,95044.25
2019-03-10T20:50:35.363Z,95058.63
2019-03-10T20:53:03.056Z,95064.95
2019-03-10T20:55:31.025Z,95078.25
2019-03-10T20:57:58.702Z,95081.70
2019-03-10T21:00:26.450Z,95091.72
2019-03-10T21:02:54.340Z,95091.93
2019-03-10T21:05:22.036Z,95116.53
2019-03-10T21:07:49.883Z,95100.72
2019-03-10T21:10:17.676Z,95101.58
2019-03-10T21:12:45.400Z,95110.64
2019-03-10T21:15:15.030Z,95118.40
2019-03-10T21:17:42.924Z,95120.77
2019-03-10T21:20:12.173Z,95126.39
2019-03-10T21:22:39.785Z,95124.58
2019-03-10T21:25:10.177Z,95122.97
2019-03-10T21:27:38.561Z,95127.84
2019-03-10T21:30:10.677Z,95128.91
2019-03-10T21:32:38.289Z,95134.81
2019-03-10T21:35:16.843Z,95117.27
2019-03-10T21:37:36.664Z,95128.14
2019-03-10T21:40:04.650Z,95127.09
2019-03-10T21:42:32.218Z,95151.07
2019-03-10T21:44:59.841Z,95146.64
2019-03-10T21:47:27.623Z,95166.58
2019-03-10T21:49:55.200Z,95173.95
2019-03-10T21:52:22.878Z,95174.69
2019-03-10T21:54:50.413Z,95182.51
2019-03-10T21:57:18.322Z,95180.86
2019-03-10T21:59:45.747Z,95176.05
2019-03-10T22:02:13.153Z,95178.77
2019-03-10T22:04:40.567Z,95165.83
2019-03-10T22:07:07.916Z,95171.47
2019-03-10T22:09:35.262Z,95162.06
2019-03-10T22:12:02.616Z,95173.83
2019-03-10T22:14:29.918Z,95175.02
2019-03-10T22:16:57.274Z,95180.27
2019-03-10T22:19:24.621Z,95182.89
2019-03-10T22:21:51.973Z,95203.66
2019-03-10T22:24:19.292Z,95196.79
2019-03-10T22:26:46.648Z,95206.58
2019-03-10T22:29:14.011Z,95213.03
2019-03-10T22:31:41.338Z,95215.45
2019-03-10T22:34:08.683Z,95217.08
2019-03-10T22:36:36.037Z,95225.88
2019-03-10T22:39:05.332Z,95230.10
2019-03-10T22:41:32.703Z,95221.63
2019-03-10T22:44:00.058Z,95234.53
2019-03-10T22:46:27.433Z,95236.53
2019-03-10T22:48:54.740Z,95223.53
2019-03-10T22:51:22.086Z,95231.77
2019-03-10T22:53:49.449Z,95229.47
2019-03-10T22:56:17.255Z,95221.00
2019-03-10T22:58:44.654Z,95222.50
2019-03-10T23:01:12.211Z,95224.52
2019-03-10T23:03:39.636Z,95233.95
2019-03-10T23:06:06.989Z,95243.88
2019-03-10T23:08:34.321Z,95236.56
2019-03-10T23:11:01.651Z,95235.03
2019-03-10T23:13:29.022Z,95244.23
2019-03-10T23:15:56.331Z,95249.81
2019-03-10T23:18:24.011Z,95255.16
2019-03-10T23:20:51.329Z,95256.20
2019-03-10T23:23:18.640Z,95270.36
2019-03-10T23:25:46.012Z,95265.61
2019-03-10T23:28:13.441Z,95275.75
2019-03-10T23:30:40.771Z,95285.77
2019-03-10T23:33:08.161Z,95289.98
2019-03-10T23:35:35.481Z,95282.64
2019-03-10T23:38:02.811Z,95276.92
2019-03-10T23:40:30.331Z,95272.71
2019-03-10T23:42:57.691Z,95274.42
2019-03-10T23:45:25.041Z,95277.81
2019-03-10T23:47:52.401Z,95284.16
2019-03-10T23:50:19.897Z,95286.06
2019-03-10T23:52:47.344Z,95288.81
2019-03-10T23:55:14.686Z,95282.73
2019-03-10T23:57:42.131Z,95288.02
